sensor_id;sensor_type;location;lat;lon;timestamp;P1;durP1;ratioP1;P2;durP2;ratioP2
11488;SDS011;5801;50.804;12.638;2022-08-19T00:01:47;25.90;;;15.95;;
11488;SDS011;5801;50.804;12.638;2022-08-19T00:04:14;23.73;;;14.85;;
11488;SDS011;5801;50.804;12.638;2022-08-19T00:06:41;24.75;;;16.05;;
11488;SDS011;5801;50.804;12.638;2022-08-19T00:09:08;21.23;;;14.48;;
11488;SDS011;5801;50.804;12.638;2022-08-19T00:11:35;23.73;;;14.70;;
11488;SDS011;5801;50.804;12.638;2022-08-19T00:14:02;25.08;;;15.18;;
11488;SDS011;5801;50.804;12.638;2022-08-19T00:16:29;24.52;;;15.90;;
11488;SDS011;5801;50.804;12.638;2022-08-19T00:18:54;22.58;;;15.18;;
11488;SDS011;5801;50.804;12.638;2022-08-19T00:21:21;23.63;;;15.45;;
11488;SDS011;5801;50.804;12.638;2022-08-19T00:23:47;25.77;;;15.68;;
11488;SDS011;5801;50.804;12.638;2022-08-19T00:26:13;25.23;;;16.00;;
11488;SDS011;5801;50.804;12.638;2022-08-19T00:28:39;27.08;;;14.48;;
11488;SDS011;5801;50.804;12.638;2022-08-19T00:31:05;37.22;;;17.02;;
11488;SDS011;5801;50.804;12.638;2022-08-19T00:33:32;26.48;;;14.77;;
11488;SDS011;5801;50.804;12.638;2022-08-19T00:36:02;26.65;;;14.40;;
11488;SDS011;5801;50.804;12.638;2022-08-19T00:38:29;29.33;;;17.33;;
11488;SDS011;5801;50.804;12.638;2022-08-19T00:40:55;23.27;;;16.00;;
11488;SDS011;5801;50.804;12.638;2022-08-19T00:43:22;27.05;;;16.83;;
11488;SDS011;5801;50.804;12.638;2022-08-19T00:45:48;26.08;;;16.88;;
11488;SDS011;5801;50.804;12.638;2022-08-19T00:48:15;26.48;;;17.23;;
11488;SDS011;5801;50.804;12.638;2022-08-19T00:50:42;27.55;;;17.33;;
11488;SDS011;5801;50.804;12.638;2022-08-19T00:53:09;26.98;;;18.88;;
11488;SDS011;5801;50.804;12.638;2022-08-19T00:55:35;29.05;;;18.08;;
11488;SDS011;5801;50.804;12.638;2022-08-19T00:58:04;28.98;;;19.08;;
11488;SDS011;5801;50.804;12.638;2022-08-19T01:00:32;28.58;;;18.27;;
11488;SDS011;5801;50.804;12.638;2022-08-19T01:03:03;33.67;;;20.30;;
11488;SDS011;5801;50.804;12.638;2022-08-19T01:05:30;30.35;;;18.67;;
11488;SDS011;5801;50.804;12.638;2022-08-19T01:07:58;27.15;;;17.30;;
11488;SDS011;5801;50.804;12.638;2022-08-19T01:10:25;33.70;;;18.80;;
11488;SDS011;5801;50.804;12.638;2022-08-19T01:12:52;37.88;;;19.13;;
11488;SDS011;5801;50.804;12.638;2022-08-19T01:15:21;28.67;;;17.52;;
11488;SDS011;5801;50.804;12.638;2022-08-19T01:17:48;29.00;;;18.65;;
11488;SDS011;5801;50.804;12.638;2022-08-19T01:20:16;20.92;;;14.32;;
11488;SDS011;5801;50.804;12.638;2022-08-19T01:22:44;31.38;;;18.65;;
11488;SDS011;5801;50.804;12.638;2022-08-19T01:25:11;32.10;;;19.30;;
11488;SDS011;5801;50.804;12.638;2022-08-19T01:27:39;30.05;;;18.88;;
11488;SDS011;5801;50.804;12.638;2022-08-19T01:30:05;29.75;;;19.23;;
11488;SDS011;5801;50.804;12.638;2022-08-19T01:32:32;26.35;;;17.70;;
11488;SDS011;5801;50.804;12.638;2022-08-19T01:34:57;33.72;;;20.17;;
11488;SDS011;5801;50.804;12.638;2022-08-19T01:37:26;29.90;;;18.75;;
11488;SDS011;5801;50.804;12.638;2022-08-19T01:39:52;33.05;;;19.30;;
11488;SDS011;5801;50.804;12.638;2022-08-19T01:42:18;29.80;;;18.27;;
11488;SDS011;5801;50.804;12.638;2022-08-19T01:44:44;28.27;;;19.08;;
11488;SDS011;5801;50.804;12.638;2022-08-19T01:47:10;31.83;;;19.80;;
11488;SDS011;5801;50.804;12.638;2022-08-19T01:49:37;32.55;;;18.92;;
11488;SDS011;5801;50.804;12.638;2022-08-19T01:52:03;29.08;;;18.60;;
11488;SDS011;5801;50.804;12.638;2022-08-19T01:54:30;32.35;;;19.17;;
11488;SDS011;5801;50.804;12.638;2022-08-19T01:56:58;29.85;;;18.50;;
11488;SDS011;5801;50.804;12.638;2022-08-19T01:59:24;33.00;;;18.95;;
11488;SDS011;5801;50.804;12.638;2022-08-19T02:01:50;28.52;;;18.80;;
11488;SDS011;5801;50.804;12.638;2022-08-19T02:04:16;31.02;;;19.55;;
11488;SDS011;5801;50.804;12.638;2022-08-19T02:06:42;25.50;;;16.65;;
11488;SDS011;5801;50.804;12.638;2022-08-19T02:09:08;29.65;;;18.75;;
11488;SDS011;5801;50.804;12.638;2022-08-19T02:11:35;30.70;;;17.83;;
11488;SDS011;5801;50.804;12.638;2022-08-19T02:14:04;27.83;;;17.42;;
11488;SDS011;5801;50.804;12.638;2022-08-19T02:16:30;31.10;;;18.67;;
11488;SDS011;5801;50.804;12.638;2022-08-19T02:18:57;29.83;;;18.13;;
11488;SDS011;5801;50.804;12.638;2022-08-19T02:21:25;29.92;;;18.60;;
11488;SDS011;5801;50.804;12.638;2022-08-19T02:23:51;28.13;;;18.80;;
11488;SDS011;5801;50.804;12.638;2022-08-19T02:26:17;28.25;;;18.23;;
11488;SDS011;5801;50.804;12.638;2022-08-19T02:28:44;33.55;;;19.02;;
11488;SDS011;5801;50.804;12.638;2022-08-19T02:31:11;31.65;;;18.80;;
11488;SDS011;5801;50.804;12.638;2022-08-19T02:33:37;25.52;;;16.10;;
11488;SDS011;5801;50.804;12.638;2022-08-19T02:36:04;31.83;;;19.48;;
11488;SDS011;5801;50.804;12.638;2022-08-19T02:38:30;34.90;;;19.27;;
11488;SDS011;5801;50.804;12.638;2022-08-19T02:41:01;28.08;;;18.70;;
11488;SDS011;5801;50.804;12.638;2022-08-19T02:43:29;31.95;;;19.75;;
11488;SDS011;5801;50.804;12.638;2022-08-19T02:45:55;30.73;;;18.55;;
11488;SDS011;5801;50.804;12.638;2022-08-19T02:48:21;31.38;;;18.88;;
11488;SDS011;5801;50.804;12.638;2022-08-19T02:50:48;28.65;;;17.25;;
11488;SDS011;5801;50.804;12.638;2022-08-19T02:53:20;25.13;;;17.13;;
11488;SDS011;5801;50.804;12.638;2022-08-19T02:55:47;30.85;;;19.10;;
11488;SDS011;5801;50.804;12.638;2022-08-19T02:58:14;28.42;;;18.73;;
11488;SDS011;5801;50.804;12.638;2022-08-19T03:00:41;35.05;;;18.73;;
11488;SDS011;5801;50.804;12.638;2022-08-19T03:03:08;30.35;;;17.73;;
11488;SDS011;5801;50.804;12.638;2022-08-19T03:05:34;31.80;;;20.67;;
11488;SDS011;5801;50.804;12.638;2022-08-19T03:08:00;32.47;;;19.70;;
11488;SDS011;5801;50.804;12.638;2022-08-19T03:10:26;31.08;;;17.17;;
11488;SDS011;5801;50.804;12.638;2022-08-19T03:12:52;33.88;;;19.77;;
11488;SDS011;5801;50.804;12.638;2022-08-19T03:15:18;36.28;;;21.38;;
11488;SDS011;5801;50.804;12.638;2022-08-19T03:17:44;28.70;;;18.17;;
11488;SDS011;5801;50.804;12.638;2022-08-19T03:20:10;33.83;;;18.88;;
11488;SDS011;5801;50.804;12.638;2022-08-19T03:22:36;32.75;;;17.23;;
11488;SDS011;5801;50.804;12.638;2022-08-19T03:25:02;33.50;;;19.58;;
11488;SDS011;5801;50.804;12.638;2022-08-19T03:27:28;31.40;;;19.65;;
11488;SDS011;5801;50.804;12.638;2022-08-19T03:29:54;42.00;;;21.52;;
11488;SDS011;5801;50.804;12.638;2022-08-19T03:32:21;39.85;;;21.80;;
11488;SDS011;5801;50.804;12.638;2022-08-19T03:34:47;28.50;;;17.15;;
11488;SDS011;5801;50.804;12.638;2022-08-19T03:37:13;41.70;;;22.83;;
11488;SDS011;5801;50.804;12.638;2022-08-19T03:39:40;40.58;;;21.63;;
11488;SDS011;5801;50.804;12.638;2022-08-19T03:42:07;43.67;;;22.45;;
11488;SDS011;5801;50.804;12.638;2022-08-19T03:44:33;34.42;;;21.35;;
11488;SDS011;5801;50.804;12.638;2022-08-19T03:47:01;45.22;;;21.98;;
11488;SDS011;5801;50.804;12.638;2022-08-19T03:49:28;42.40;;;21.98;;
11488;SDS011;5801;50.804;12.638;2022-08-19T03:51:54;38.05;;;21.10;;
11488;SDS011;5801;50.804;12.638;2022-08-19T03:54:22;36.95;;;19.60;;
11488;SDS011;5801;50.804;12.638;2022-08-19T03:56:49;43.00;;;21.10;;
11488;SDS011;5801;50.804;12.638;2022-08-19T03:59:28;34.25;;;19.17;;
11488;SDS011;5801;50.804;12.638;2022-08-19T04:01:56;40.20;;;21.17;;
11488;SDS011;5801;50.804;12.638;2022-08-19T04:04:22;39.60;;;21.80;;
11488;SDS011;5801;50.804;12.638;2022-08-19T04:06:49;45.22;;;22.63;;
11488;SDS011;5801;50.804;12.638;2022-08-19T04:09:16;45.28;;;24.08;;
11488;SDS011;5801;50.804;12.638;2022-08-19T04:11:43;37.88;;;20.95;;
11488;SDS011;5801;50.804;12.638;2022-08-19T04:14:10;40.05;;;22.55;;
11488;SDS011;5801;50.804;12.638;2022-08-19T04:16:37;43.13;;;22.58;;
11488;SDS011;5801;50.804;12.638;2022-08-19T04:19:03;42.55;;;21.90;;
11488;SDS011;5801;50.804;12.638;2022-08-19T04:21:29;36.53;;;21.00;;
11488;SDS011;5801;50.804;12.638;2022-08-19T04:23:56;40.28;;;21.90;;
11488;SDS011;5801;50.804;12.638;2022-08-19T04:26:24;53.25;;;23.30;;
11488;SDS011;5801;50.804;12.638;2022-08-19T04:28:50;42.88;;;23.58;;
11488;SDS011;5801;50.804;12.638;2022-08-19T04:31:23;45.80;;;21.40;;
11488;SDS011;5801;50.804;12.638;2022-08-19T04:33:53;50.08;;;23.27;;
11488;SDS011;5801;50.804;12.638;2022-08-19T04:36:23;42.97;;;20.85;;
11488;SDS011;5801;50.804;12.638;2022-08-19T04:38:50;45.92;;;23.17;;
11488;SDS011;5801;50.804;12.638;2022-08-19T04:41:18;46.85;;;24.25;;
11488;SDS011;5801;50.804;12.638;2022-08-19T04:44:03;41.88;;;21.20;;
11488;SDS011;5801;50.804;12.638;2022-08-19T04:46:30;46.30;;;23.38;;
11488;SDS011;5801;50.804;12.638;2022-08-19T04:48:56;45.10;;;23.65;;
11488;SDS011;5801;50.804;12.638;2022-08-19T04:51:23;40.85;;;21.40;;
11488;SDS011;5801;50.804;12.638;2022-08-19T04:53:49;46.65;;;23.98;;
11488;SDS011;5801;50.804;12.638;2022-08-19T04:56:15;49.53;;;25.13;;
11488;SDS011;5801;50.804;12.638;2022-08-19T04:58:42;52.28;;;26.02;;
11488;SDS011;5801;50.804;12.638;2022-08-19T05:01:09;55.55;;;25.13;;
11488;SDS011;5801;50.804;12.638;2022-08-19T05:03:37;49.92;;;25.13;;
11488;SDS011;5801;50.804;12.638;2022-08-19T05:06:06;50.15;;;24.80;;
11488;SDS011;5801;50.804;12.638;2022-08-19T05:08:33;45.53;;;24.30;;
11488;SDS011;5801;50.804;12.638;2022-08-19T05:11:00;51.55;;;24.88;;
11488;SDS011;5801;50.804;12.638;2022-08-19T05:13:26;51.75;;;24.50;;
11488;SDS011;5801;50.804;12.638;2022-08-19T05:15:55;51.72;;;26.50;;
11488;SDS011;5801;50.804;12.638;2022-08-19T05:18:22;49.17;;;23.73;;
11488;SDS011;5801;50.804;12.638;2022-08-19T05:21:08;48.20;;;24.23;;
11488;SDS011;5801;50.804;12.638;2022-08-19T05:23:52;52.85;;;25.80;;
11488;SDS011;5801;50.804;12.638;2022-08-19T05:26:18;60.05;;;27.20;;
11488;SDS011;5801;50.804;12.638;2022-08-19T05:28:44;47.53;;;25.45;;
11488;SDS011;5801;50.804;12.638;2022-08-19T05:31:10;49.63;;;25.98;;
11488;SDS011;5801;50.804;12.638;2022-08-19T05:33:37;55.42;;;26.45;;
11488;SDS011;5801;50.804;12.638;2022-08-19T05:36:04;58.47;;;27.00;;
11488;SDS011;5801;50.804;12.638;2022-08-19T05:38:32;52.28;;;27.17;;
11488;SDS011;5801;50.804;12.638;2022-08-19T05:40:58;50.20;;;26.83;;
11488;SDS011;5801;50.804;12.638;2022-08-19T05:43:24;53.47;;;26.23;;
11488;SDS011;5801;50.804;12.638;2022-08-19T05:45:50;61.08;;;28.77;;
11488;SDS011;5801;50.804;12.638;2022-08-19T05:48:16;46.67;;;24.98;;
11488;SDS011;5801;50.804;12.638;2022-08-19T05:50:45;64.35;;;29.85;;
11488;SDS011;5801;50.804;12.638;2022-08-19T05:53:11;54.08;;;26.45;;
11488;SDS011;5801;50.804;12.638;2022-08-19T05:55:37;59.67;;;28.70;;
11488;SDS011;5801;50.804;12.638;2022-08-19T05:58:04;58.00;;;27.63;;
11488;SDS011;5801;50.804;12.638;2022-08-19T06:00:32;54.95;;;25.48;;
11488;SDS011;5801;50.804;12.638;2022-08-19T06:02:58;48.47;;;24.85;;
11488;SDS011;5801;50.804;12.638;2022-08-19T06:05:28;48.30;;;25.00;;
11488;SDS011;5801;50.804;12.638;2022-08-19T06:07:54;52.20;;;25.50;;
11488;SDS011;5801;50.804;12.638;2022-08-19T06:10:19;50.15;;;24.15;;
11488;SDS011;5801;50.804;12.638;2022-08-19T06:12:46;49.35;;;24.50;;
11488;SDS011;5801;50.804;12.638;2022-08-19T06:15:13;48.83;;;24.20;;
11488;SDS011;5801;50.804;12.638;2022-08-19T06:17:39;42.45;;;22.55;;
11488;SDS011;5801;50.804;12.638;2022-08-19T06:20:07;43.08;;;21.88;;
11488;SDS011;5801;50.804;12.638;2022-08-19T06:22:38;43.42;;;21.63;;
11488;SDS011;5801;50.804;12.638;2022-08-19T06:25:04;36.88;;;19.60;;
11488;SDS011;5801;50.804;12.638;2022-08-19T06:27:30;41.85;;;21.48;;
11488;SDS011;5801;50.804;12.638;2022-08-19T06:29:57;37.65;;;21.63;;
11488;SDS011;5801;50.804;12.638;2022-08-19T06:32:23;36.88;;;19.95;;
11488;SDS011;5801;50.804;12.638;2022-08-19T06:34:49;35.45;;;20.63;;
11488;SDS011;5801;50.804;12.638;2022-08-19T06:37:15;36.58;;;18.95;;
11488;SDS011;5801;50.804;12.638;2022-08-19T06:39:42;28.85;;;17.95;;
11488;SDS011;5801;50.804;12.638;2022-08-19T06:42:08;40.92;;;20.27;;
11488;SDS011;5801;50.804;12.638;2022-08-19T06:44:36;30.92;;;17.02;;
11488;SDS011;5801;50.804;12.638;2022-08-19T06:47:04;28.77;;;16.95;;
11488;SDS011;5801;50.804;12.638;2022-08-19T06:49:30;28.80;;;17.40;;
11488;SDS011;5801;50.804;12.638;2022-08-19T06:51:56;27.17;;;17.58;;
11488;SDS011;5801;50.804;12.638;2022-08-19T06:54:23;34.60;;;17.42;;
11488;SDS011;5801;50.804;12.638;2022-08-19T06:56:49;30.80;;;16.02;;
11488;SDS011;5801;50.804;12.638;2022-08-19T06:59:16;30.67;;;17.65;;
11488;SDS011;5801;50.804;12.638;2022-08-19T07:01:44;24.85;;;15.70;;
11488;SDS011;5801;50.804;12.638;2022-08-19T07:04:12;25.80;;;14.07;;
11488;SDS011;5801;50.804;12.638;2022-08-19T07:06:38;27.30;;;15.52;;
11488;SDS011;5801;50.804;12.638;2022-08-19T07:09:04;26.40;;;15.07;;
11488;SDS011;5801;50.804;12.638;2022-08-19T07:11:31;24.38;;;15.15;;
11488;SDS011;5801;50.804;12.638;2022-08-19T07:13:58;30.10;;;17.42;;
11488;SDS011;5801;50.804;12.638;2022-08-19T07:16:24;28.60;;;17.20;;
11488;SDS011;5801;50.804;12.638;2022-08-19T07:18:50;35.40;;;19.80;;
11488;SDS011;5801;50.804;12.638;2022-08-19T07:21:18;37.88;;;19.85;;
11488;SDS011;5801;50.804;12.638;2022-08-19T07:23:44;28.77;;;16.95;;
11488;SDS011;5801;50.804;12.638;2022-08-19T07:26:13;28.05;;;17.85;;
11488;SDS011;5801;50.804;12.638;2022-08-19T07:28:46;29.92;;;19.27;;
11488;SDS011;5801;50.804;12.638;2022-08-19T07:31:13;30.83;;;18.13;;
11488;SDS011;5801;50.804;12.638;2022-08-19T07:33:39;24.60;;;15.80;;
11488;SDS011;5801;50.804;12.638;2022-08-19T07:36:08;27.13;;;17.63;;
11488;SDS011;5801;50.804;12.638;2022-08-19T07:38:36;31.42;;;18.17;;
11488;SDS011;5801;50.804;12.638;2022-08-19T07:41:03;26.63;;;17.65;;
11488;SDS011;5801;50.804;12.638;2022-08-19T07:43:29;26.45;;;17.08;;
11488;SDS011;5801;50.804;12.638;2022-08-19T07:45:55;25.83;;;15.75;;
11488;SDS011;5801;50.804;12.638;2022-08-19T07:48:22;20.98;;;13.98;;
11488;SDS011;5801;50.804;12.638;2022-08-19T07:50:50;33.67;;;18.40;;
11488;SDS011;5801;50.804;12.638;2022-08-19T07:53:20;25.23;;;16.95;;
11488;SDS011;5801;50.804;12.638;2022-08-19T07:55:46;21.90;;;13.13;;
11488;SDS011;5801;50.804;12.638;2022-08-19T07:58:13;26.73;;;16.88;;
11488;SDS011;5801;50.804;12.638;2022-08-19T08:00:41;27.65;;;16.73;;
11488;SDS011;5801;50.804;12.638;2022-08-19T08:03:07;23.08;;;15.57;;
11488;SDS011;5801;50.804;12.638;2022-08-19T08:05:33;22.67;;;15.02;;
11488;SDS011;5801;50.804;12.638;2022-08-19T08:08:18;25.83;;;17.33;;
11488;SDS011;5801;50.804;12.638;2022-08-19T08:11:04;26.55;;;15.75;;
11488;SDS011;5801;50.804;12.638;2022-08-19T08:13:30;28.00;;;17.65;;
11488;SDS011;5801;50.804;12.638;2022-08-19T08:15:57;25.92;;;17.08;;
11488;SDS011;5801;50.804;12.638;2022-08-19T08:18:23;27.48;;;16.58;;
11488;SDS011;5801;50.804;12.638;2022-08-19T08:20:49;30.35;;;17.52;;
11488;SDS011;5801;50.804;12.638;2022-08-19T08:23:15;30.50;;;16.58;;
11488;SDS011;5801;50.804;12.638;2022-08-19T08:25:49;22.73;;;15.48;;
11488;SDS011;5801;50.804;12.638;2022-08-19T08:28:15;29.58;;;17.85;;
11488;SDS011;5801;50.804;12.638;2022-08-19T08:30:41;23.40;;;15.45;;
11488;SDS011;5801;50.804;12.638;2022-08-19T08:33:08;24.27;;;16.77;;
11488;SDS011;5801;50.804;12.638;2022-08-19T08:35:34;26.35;;;15.93;;
11488;SDS011;5801;50.804;12.638;2022-08-19T08:38:00;29.23;;;17.38;;
11488;SDS011;5801;50.804;12.638;2022-08-19T08:40:30;29.33;;;17.25;;
11488;SDS011;5801;50.804;12.638;2022-08-19T08:43:11;27.05;;;17.90;;
11488;SDS011;5801;50.804;12.638;2022-08-19T08:45:44;27.80;;;17.50;;
11488;SDS011;5801;50.804;12.638;2022-08-19T08:48:17;27.52;;;17.48;;
11488;SDS011;5801;50.804;12.638;2022-08-19T08:50:44;32.05;;;18.77;;
11488;SDS011;5801;50.804;12.638;2022-08-19T08:53:12;27.65;;;17.33;;
11488;SDS011;5801;50.804;12.638;2022-08-19T08:55:40;31.25;;;18.45;;
11488;SDS011;5801;50.804;12.638;2022-08-19T08:58:08;34.28;;;19.08;;
11488;SDS011;5801;50.804;12.638;2022-08-19T09:00:39;29.30;;;18.92;;
11488;SDS011;5801;50.804;12.638;2022-08-19T09:03:09;34.38;;;19.23;;
11488;SDS011;5801;50.804;12.638;2022-08-19T09:05:43;31.88;;;17.92;;
11488;SDS011;5801;50.804;12.638;2022-08-19T09:08:25;30.23;;;18.92;;
11488;SDS011;5801;50.804;12.638;2022-08-19T09:10:53;32.47;;;20.08;;
11488;SDS011;5801;50.804;12.638;2022-08-19T09:15:55;29.60;;;17.75;;
11488;SDS011;5801;50.804;12.638;2022-08-19T09:18:22;33.78;;;21.48;;
11488;SDS011;5801;50.804;12.638;2022-08-19T09:20:48;38.25;;;20.90;;
11488;SDS011;5801;50.804;12.638;2022-08-19T09:23:14;32.72;;;21.30;;
11488;SDS011;5801;50.804;12.638;2022-08-19T09:25:40;37.90;;;20.73;;
11488;SDS011;5801;50.804;12.638;2022-08-19T09:28:06;41.00;;;22.48;;
11488;SDS011;5801;50.804;12.638;2022-08-19T09:30:33;50.55;;;24.00;;
11488;SDS011;5801;50.804;12.638;2022-08-19T09:32:59;34.05;;;20.35;;
11488;SDS011;5801;50.804;12.638;2022-08-19T09:35:27;36.70;;;21.90;;
11488;SDS011;5801;50.804;12.638;2022-08-19T09:37:56;37.60;;;20.33;;
11488;SDS011;5801;50.804;12.638;2022-08-19T09:40:23;30.17;;;17.73;;
11488;SDS011;5801;50.804;12.638;2022-08-19T09:42:50;30.23;;;19.10;;
11488;SDS011;5801;50.804;12.638;2022-08-19T09:45:18;42.72;;;21.80;;
11488;SDS011;5801;50.804;12.638;2022-08-19T09:47:45;35.40;;;21.52;;
11488;SDS011;5801;50.804;12.638;2022-08-19T09:50:12;40.10;;;21.98;;
11488;SDS011;5801;50.804;12.638;2022-08-19T09:52:38;35.55;;;19.52;;
11488;SDS011;5801;50.804;12.638;2022-08-19T09:55:08;34.38;;;21.40;;
11488;SDS011;5801;50.804;12.638;2022-08-19T09:57:34;35.97;;;21.50;;
11488;SDS011;5801;50.804;12.638;2022-08-19T10:00:01;36.42;;;20.02;;
11488;SDS011;5801;50.804;12.638;2022-08-19T10:02:27;29.08;;;17.98;;
11488;SDS011;5801;50.804;12.638;2022-08-19T10:04:53;34.53;;;21.90;;
11488;SDS011;5801;50.804;12.638;2022-08-19T10:07:37;38.40;;;21.98;;
11488;SDS011;5801;50.804;12.638;2022-08-19T10:10:04;37.95;;;21.77;;
11488;SDS011;5801;50.804;12.638;2022-08-19T10:12:31;38.40;;;22.48;;
11488;SDS011;5801;50.804;12.638;2022-08-19T10:14:58;40.10;;;21.98;;
11488;SDS011;5801;50.804;12.638;2022-08-19T10:17:24;36.13;;;20.75;;
11488;SDS011;5801;50.804;12.638;2022-08-19T10:19:50;37.92;;;21.27;;
11488;SDS011;5801;50.804;12.638;2022-08-19T10:22:17;33.90;;;19.88;;
11488;SDS011;5801;50.804;12.638;2022-08-19T10:24:43;38.45;;;19.17;;
11488;SDS011;5801;50.804;12.638;2022-08-19T10:27:10;38.03;;;20.95;;
11488;SDS011;5801;50.804;12.638;2022-08-19T10:29:37;36.88;;;19.27;;
11488;SDS011;5801;50.804;12.638;2022-08-19T10:32:04;29.45;;;18.73;;
11488;SDS011;5801;50.804;12.638;2022-08-19T10:34:32;31.08;;;18.55;;
11488;SDS011;5801;50.804;12.638;2022-08-19T10:36:58;31.35;;;18.42;;
11488;SDS011;5801;50.804;12.638;2022-08-19T10:39:25;30.80;;;19.27;;
11488;SDS011;5801;50.804;12.638;2022-08-19T10:41:54;36.17;;;20.98;;
11488;SDS011;5801;50.804;12.638;2022-08-19T10:44:21;33.10;;;19.73;;
11488;SDS011;5801;50.804;12.638;2022-08-19T10:46:48;36.17;;;19.70;;
11488;SDS011;5801;50.804;12.638;2022-08-19T10:49:14;32.75;;;19.42;;
11488;SDS011;5801;50.804;12.638;2022-08-19T10:51:40;37.67;;;20.98;;
11488;SDS011;5801;50.804;12.638;2022-08-19T10:54:25;33.60;;;20.52;;
11488;SDS011;5801;50.804;12.638;2022-08-19T10:57:11;35.30;;;19.23;;
11488;SDS011;5801;50.804;12.638;2022-08-19T10:59:37;44.20;;;22.75;;
11488;SDS011;5801;50.804;12.638;2022-08-19T11:02:05;55.25;;;29.00;;
11488;SDS011;5801;50.804;12.638;2022-08-19T11:04:31;51.10;;;27.25;;
11488;SDS011;5801;50.804;12.638;2022-08-19T11:06:58;52.38;;;26.98;;
11488;SDS011;5801;50.804;12.638;2022-08-19T11:09:24;52.90;;;28.75;;
11488;SDS011;5801;50.804;12.638;2022-08-19T11:11:51;55.10;;;28.70;;
11488;SDS011;5801;50.804;12.638;2022-08-19T11:14:18;50.80;;;27.00;;
11488;SDS011;5801;50.804;12.638;2022-08-19T11:16:45;51.83;;;27.02;;
11488;SDS011;5801;50.804;12.638;2022-08-19T11:19:11;54.42;;;28.27;;
11488;SDS011;5801;50.804;12.638;2022-08-19T11:21:40;52.17;;;26.95;;
11488;SDS011;5801;50.804;12.638;2022-08-19T11:24:07;64.65;;;30.10;;
11488;SDS011;5801;50.804;12.638;2022-08-19T11:26:34;63.50;;;29.33;;
11488;SDS011;5801;50.804;12.638;2022-08-19T11:29:00;60.17;;;29.30;;
11488;SDS011;5801;50.804;12.638;2022-08-19T11:31:28;68.18;;;30.95;;
11488;SDS011;5801;50.804;12.638;2022-08-19T11:33:59;62.75;;;29.13;;
11488;SDS011;5801;50.804;12.638;2022-08-19T11:36:26;59.90;;;29.35;;
11488;SDS011;5801;50.804;12.638;2022-08-19T11:38:52;61.80;;;29.92;;
11488;SDS011;5801;50.804;12.638;2022-08-19T11:41:19;59.67;;;29.73;;
11488;SDS011;5801;50.804;12.638;2022-08-19T11:43:45;62.97;;;27.10;;
11488;SDS011;5801;50.804;12.638;2022-08-19T11:46:12;49.67;;;25.45;;
11488;SDS011;5801;50.804;12.638;2022-08-19T11:48:38;53.83;;;25.90;;
11488;SDS011;5801;50.804;12.638;2022-08-19T11:51:05;43.25;;;24.42;;
11488;SDS011;5801;50.804;12.638;2022-08-19T11:53:32;53.50;;;25.20;;
11488;SDS011;5801;50.804;12.638;2022-08-19T11:55:59;44.47;;;23.05;;
11488;SDS011;5801;50.804;12.638;2022-08-19T11:58:25;44.90;;;22.98;;
11488;SDS011;5801;50.804;12.638;2022-08-19T12:00:51;43.00;;;23.67;;
11488;SDS011;5801;50.804;12.638;2022-08-19T12:03:17;48.22;;;24.23;;
11488;SDS011;5801;50.804;12.638;2022-08-19T12:05:44;47.22;;;23.13;;
11488;SDS011;5801;50.804;12.638;2022-08-19T12:08:10;53.78;;;23.77;;
11488;SDS011;5801;50.804;12.638;2022-08-19T12:10:37;44.85;;;23.42;;
11488;SDS011;5801;50.804;12.638;2022-08-19T12:13:03;54.92;;;24.27;;
11488;SDS011;5801;50.804;12.638;2022-08-19T12:15:29;43.17;;;23.27;;
11488;SDS011;5801;50.804;12.638;2022-08-19T12:17:56;44.72;;;22.80;;
11488;SDS011;5801;50.804;12.638;2022-08-19T12:20:23;48.70;;;23.25;;
11488;SDS011;5801;50.804;12.638;2022-08-19T12:22:49;49.15;;;24.02;;
11488;SDS011;5801;50.804;12.638;2022-08-19T12:25:16;50.75;;;24.17;;
11488;SDS011;5801;50.804;12.638;2022-08-19T12:27:42;48.92;;;25.23;;
11488;SDS011;5801;50.804;12.638;2022-08-19T12:30:09;46.80;;;22.88;;
11488;SDS011;5801;50.804;12.638;2022-08-19T12:32:35;38.85;;;20.15;;
11488;SDS011;5801;50.804;12.638;2022-08-19T12:35:01;40.70;;;20.48;;
11488;SDS011;5801;50.804;12.638;2022-08-19T12:37:27;43.45;;;20.67;;
11488;SDS011;5801;50.804;12.638;2022-08-19T12:39:54;40.88;;;20.35;;
11488;SDS011;5801;50.804;12.638;2022-08-19T12:42:20;44.83;;;23.02;;
11488;SDS011;5801;50.804;12.638;2022-08-19T12:44:47;41.08;;;19.88;;
11488;SDS011;5801;50.804;12.638;2022-08-19T12:47:13;47.35;;;21.15;;
11488;SDS011;5801;50.804;12.638;2022-08-19T12:49:39;48.13;;;22.77;;
11488;SDS011;5801;50.804;12.638;2022-08-19T12:52:06;44.40;;;20.05;;
11488;SDS011;5801;50.804;12.638;2022-08-19T12:54:33;40.70;;;20.88;;
11488;SDS011;5801;50.804;12.638;2022-08-19T12:56:59;32.47;;;17.48;;
11488;SDS011;5801;50.804;12.638;2022-08-19T12:59:26;32.10;;;18.15;;
11488;SDS011;5801;50.804;12.638;2022-08-19T13:01:52;44.20;;;19.52;;
11488;SDS011;5801;50.804;12.638;2022-08-19T13:04:18;40.13;;;19.45;;
11488;SDS011;5801;50.804;12.638;2022-08-19T13:06:44;41.75;;;20.73;;
11488;SDS011;5801;50.804;12.638;2022-08-19T13:09:10;31.95;;;18.67;;
11488;SDS011;5801;50.804;12.638;2022-08-19T13:11:37;36.38;;;21.27;;
11488;SDS011;5801;50.804;12.638;2022-08-19T13:14:03;37.20;;;21.83;;
11488;SDS011;5801;50.804;12.638;2022-08-19T13:16:29;41.47;;;21.30;;
11488;SDS011;5801;50.804;12.638;2022-08-19T13:18:55;35.45;;;21.38;;
11488;SDS011;5801;50.804;12.638;2022-08-19T13:21:23;35.40;;;19.48;;
11488;SDS011;5801;50.804;12.638;2022-08-19T13:23:49;37.65;;;20.42;;
11488;SDS011;5801;50.804;12.638;2022-08-19T13:26:15;33.63;;;19.48;;
11488;SDS011;5801;50.804;12.638;2022-08-19T13:28:42;38.88;;;19.48;;
11488;SDS011;5801;50.804;12.638;2022-08-19T13:31:28;37.28;;;20.50;;
11488;SDS011;5801;50.804;12.638;2022-08-19T13:34:13;37.22;;;20.33;;
11488;SDS011;5801;50.804;12.638;2022-08-19T13:36:40;39.33;;;20.00;;
11488;SDS011;5801;50.804;12.638;2022-08-19T13:39:06;37.05;;;20.30;;
11488;SDS011;5801;50.804;12.638;2022-08-19T13:41:33;36.50;;;20.20;;
11488;SDS011;5801;50.804;12.638;2022-08-19T13:44:00;35.65;;;20.13;;
11488;SDS011;5801;50.804;12.638;2022-08-19T13:46:26;41.72;;;21.73;;
11488;SDS011;5801;50.804;12.638;2022-08-19T13:48:54;34.03;;;20.92;;
11488;SDS011;5801;50.804;12.638;2022-08-19T13:51:21;40.30;;;21.05;;
11488;SDS011;5801;50.804;12.638;2022-08-19T13:53:47;43.08;;;20.73;;
11488;SDS011;5801;50.804;12.638;2022-08-19T13:56:15;38.42;;;20.52;;
11488;SDS011;5801;50.804;12.638;2022-08-19T13:58:41;39.97;;;19.60;;
11488;SDS011;5801;50.804;12.638;2022-08-19T14:01:07;35.65;;;18.85;;
11488;SDS011;5801;50.804;12.638;2022-08-19T14:03:33;43.03;;;20.38;;
11488;SDS011;5801;50.804;12.638;2022-08-19T14:05:59;31.92;;;18.75;;
11488;SDS011;5801;50.804;12.638;2022-08-19T14:08:26;34.58;;;18.73;;
11488;SDS011;5801;50.804;12.638;2022-08-19T14:10:53;33.25;;;17.73;;
11488;SDS011;5801;50.804;12.638;2022-08-19T14:13:19;29.27;;;17.88;;
11488;SDS011;5801;50.804;12.638;2022-08-19T14:15:46;34.33;;;18.48;;
11488;SDS011;5801;50.804;12.638;2022-08-19T14:18:12;33.70;;;18.77;;
11488;SDS011;5801;50.804;12.638;2022-08-19T14:20:38;36.42;;;19.15;;
11488;SDS011;5801;50.804;12.638;2022-08-19T14:23:04;34.90;;;18.38;;
11488;SDS011;5801;50.804;12.638;2022-08-19T14:25:30;33.17;;;18.02;;